Time;durP1;ratioP1;P1;durP2;ratioP2;P2;SDS_P1;SDS_P2;PMS_P1;PMS_P2;Temp;Humidity;BMP_temperature;BMP_pressure;BME280_temperature;BME280_humidity;BME280_pressure;Samples;Min_cycle;Max_cycle;Signal;HPM_P1;HPM_P2
2023/06/10 00:00:00;;;;;;;6.60;3.60;;;;;;;26.09;48.44;99228.84;4501340;31;33067;-66
2023/06/10 00:02:39;;;;;;;5.12;3.17;;;;;;;26.10;48.49;99227.75;4501337;31;33912;-69
2023/06/10 00:05:10;;;;;;;7.28;3.65;;;;;;;26.10;48.51;99227.75;4501150;31;33967;-68
2023/06/10 00:07:38;;;;;;;6.00;3.45;;;;;;;26.08;48.52;99221.75;4501355;31;33613;-66
2023/06/10 00:10:06;;;;;;;6.10;3.67;;;;;;;26.08;48.50;99221.75;4501322;31;33236;-68
2023/06/10 00:12:38;;;;;;;6.30;4.05;;;;;;;26.09;48.53;99217.09;4500924;31;33949;-67
2023/06/10 00:15:06;;;;;;;6.75;3.37;;;;;;;26.09;48.52;99217.09;4501249;31;33825;-67
2023/06/10 00:17:38;;;;;;;5.72;3.65;;;;;;;26.08;48.54;99212.72;4500837;31;34302;-65
2023/06/10 00:20:08;;;;;;;6.53;3.42;;;;;;;26.10;48.52;99218.75;4501199;31;33567;-66
2023/06/10 00:22:37;;;;;;;;;;;;;;;26.09;48.53;99222.56;4501456;31;34941;-59
2023/06/10 00:25:09;;;;;;;6.22;3.60;;;;;;;26.17;48.30;99220.19;4487059;31;35042;-67
2023/06/10 00:27:37;;;;;;;8.25;3.42;;;;;;;26.09;48.47;99211.62;4501431;31;33867;-68
2023/06/10 00:30:06;;;;;;;8.00;3.72;;;;;;;26.07;48.50;99211.91;4500861;31;33564;-65
2023/06/10 00:32:35;;;;;;;6.72;3.22;;;;;;;26.06;48.54;99207.50;4501005;31;33610;-57
2023/06/10 00:35:04;;;;;;;6.57;2.95;;;;;;;26.05;48.51;99205.84;4486862;31;33722;-67
2023/06/10 00:37:34;;;;;;;5.93;3.25;;;;;;;26.06;48.46;99206.66;4486870;31;33925;-66
2023/06/10 00:40:05;;;;;;;5.55;3.22;;;;;;;26.04;48.46;99212.41;4500986;31;33565;-54
2023/06/10 00:42:33;;;;;;;5.90;3.28;;;;;;;26.04;48.45;99215.13;4500945;31;33129;-58
2023/06/10 00:45:01;;;;;;;4.43;2.92;;;;;;;26.04;48.45;99217.88;4500746;31;33713;-53
2023/06/10 00:47:29;;;;;;;5.50;2.95;;;;;;;26.04;48.44;99222.53;4501287;31;34650;-56
2023/06/10 00:49:56;;;;;;;6.03;3.30;;;;;;;26.04;48.45;99219.78;4486703;31;33600;-56
2023/06/10 00:52:26;;;;;;;6.28;3.30;;;;;;;26.04;48.44;99219.78;4500965;31;33475;-57
2023/06/10 00:54:54;;;;;;;5.70;3.28;;;;;;;26.03;48.43;99216.22;4473612;31;34933;-58
2023/06/10 00:57:22;;;;;;;5.78;3.10;;;;;;;26.04;48.41;99226.06;4487113;31;33877;-57
2023/06/10 00:59:49;;;;;;;6.57;3.08;;;;;;;26.03;48.40;99227.16;4501063;31;33300;-56
2023/06/10 01:02:17;;;;;;;5.80;3.00;;;;;;;26.03;48.40;99218.97;4500928;31;34027;-55
2023/06/10 01:04:44;;;;;;;5.10;2.92;;;;;;;26.03;48.46;99224.44;4500874;31;33615;-56
2023/06/10 01:07:24;;;;;;;5.20;3.17;;;;;;;26.03;48.47;99226.34;4500602;31;33644;-57
2023/06/10 01:10:07;;;;;;;5.45;3.25;;;;;;;26.06;48.46;99228.53;4473867;31;33649;-56
2023/06/10 01:12:48;;;;;;;4.62;3.00;;;;;;;26.05;48.43;99227.72;4473807;31;33620;-66
2023/06/10 01:15:17;;;;;;;5.75;3.22;;;;;;;26.04;48.44;99225.25;4500947;31;34003;-56
2023/06/10 01:18:01;;;;;;;4.60;2.55;;;;;;;26.03;48.44;99223.59;4486450;31;33825;-58
2023/06/10 01:20:31;;;;;;;6.95;3.25;;;;;;;26.03;48.42;99227.16;4484973;32;33200;-54
2023/06/10 01:22:59;;;;;;;6.97;3.42;;;;;;;26.01;48.44;99228.50;4483933;32;34300;-60
2023/06/10 01:25:28;;;;;;;8.82;3.20;;;;;;;26.02;48.43;99230.13;4484609;32;34047;-66
2023/06/10 01:28:03;;;;;;;6.03;3.53;;;;;;;26.02;48.43;99230.13;4471001;32;34709;-58
2023/06/10 01:30:37;;;;;;;7.70;3.40;;;;;;;26.03;48.37;99229.91;4471124;32;33347;-60
2023/06/10 01:33:07;;;;;;;6.07;2.97;;;;;;;26.01;48.44;99226.56;4471573;32;33447;-57
2023/06/10 01:35:34;;;;;;;4.47;2.83;;;;;;;26.02;48.49;99224.66;4470483;32;33770;-59
2023/06/10 01:38:02;;;;;;;5.03;2.95;;;;;;;26.01;48.51;99221.09;4483660;32;33707;-59
2023/06/10 01:40:30;;;;;;;5.75;3.05;;;;;;;26.00;48.51;99227.66;4470702;32;33369;-59
2023/06/10 01:42:58;;;;;;;5.35;2.83;;;;;;;26.01;48.49;99223.84;4470482;32;34696;-66
2023/06/10 01:45:25;;;;;;;4.55;2.92;;;;;;;26.01;48.46;99220.28;4484984;32;35084;-69
2023/06/10 01:47:53;;;;;;;6.90;3.17;;;;;;;26.00;48.44;99232.31;4484792;32;34303;-67
2023/06/10 01:50:21;;;;;;;4.68;2.80;;;;;;;25.99;48.42;99220.56;4484575;32;33752;-68
2023/06/10 01:52:48;;;;;;;6.40;3.10;;;;;;;26.00;48.39;99221.38;4484691;32;34887;-69
2023/06/10 01:55:16;;;;;;;5.90;3.60;;;;;;;26.00;48.37;99229.56;4484704;32;34768;-69
2023/06/10 01:57:43;;;;;;;6.25;3.40;;;;;;;26.00;48.38;99221.38;4484511;32;34834;-68
2023/06/10 02:00:13;;;;;;;5.62;3.20;;;;;;;25.99;48.33;99223.28;4484687;32;33730;-67
2023/06/10 02:02:41;;;;;;;4.53;2.90;;;;;;;25.98;48.37;99215.34;4484671;32;33820;-64
2023/06/10 02:05:09;;;;;;;4.65;2.83;;;;;;;25.99;48.35;99220.56;4483487;32;33928;-68
2023/06/10 02:07:38;;;;;;;6.55;2.58;;;;;;;25.98;48.36;99218.91;4499862;31;33569;-68
2023/06/10 02:10:06;;;;;;;4.07;2.72;;;;;;;25.98;48.39;99218.91;4500497;31;33615;-68
2023/06/10 02:12:35;;;;;;;5.50;2.70;;;;;;;25.98;48.43;99218.91;4500161;31;34702;-66
2023/06/10 02:15:03;;;;;;;4.07;2.60;;;;;;;25.99;48.36;99219.72;4500321;31;33999;-69
2023/06/10 02:17:30;;;;;;;5.28;2.60;;;;;;;25.98;48.32;99216.19;4500341;31;34084;-66
2023/06/10 02:19:59;;;;;;;6.90;3.22;;;;;;;25.98;48.28;99227.12;4500272;31;33122;-69
2023/06/10 02:22:27;;;;;;;4.93;3.08;;;;;;;25.98;48.27;99223.56;4500287;31;33771;-68
2023/06/10 02:24:54;;;;;;;4.57;2.90;;;;;;;25.98;48.32;99226.28;4500499;31;33628;-62
2023/06/10 02:27:22;;;;;;;5.05;3.20;;;;;;;25.97;48.34;99230.91;4500337;31;33990;-69
2023/06/10 02:29:50;;;;;;;5.78;2.90;;;;;;;25.97;48.46;99228.16;4495640;31;33241;-65
2023/06/10 02:32:19;;;;;;;5.12;3.00;;;;;;;25.97;48.52;99228.16;4498624;31;34093;-65
2023/06/10 02:34:47;;;;;;;5.15;3.42;;;;;;;25.97;48.44;99225.44;4500262;31;33978;-69
2023/06/10 02:37:17;;;;;;;4.35;2.72;;;;;;;25.98;48.37;99221.66;4500401;31;34743;-68
2023/06/10 02:39:45;;;;;;;8.02;2.62;;;;;;;25.96;48.38;99221.06;4500344;31;33605;-67
2023/06/10 02:42:13;;;;;;;4.97;2.83;;;;;;;25.97;48.46;99224.63;4500160;31;33897;-68
2023/06/10 02:44:40;;;;;;;5.10;3.05;;;;;;;25.97;48.49;99227.34;4500067;31;33921;-68
2023/06/10 02:47:09;;;;;;;6.05;3.30;;;;;;;25.97;48.37;99228.16;4500110;31;34249;-65
2023/06/10 02:49:37;;;;;;;6.43;3.28;;;;;;;25.95;48.27;99228.44;4500424;31;34541;-67
2023/06/10 02:52:06;;;;;;;10.55;3.47;;;;;;;25.95;48.16;99228.44;4500448;31;34645;-67
2023/06/10 02:54:35;;;;;;;5.68;4.07;;;;;;;25.94;48.11;99229.53;4500065;31;34809;-66
2023/06/10 02:57:05;;;;;;;6.10;3.53;;;;;;;25.95;48.04;99241.28;4500042;31;34730;-65
2023/06/10 02:59:32;;;;;;;5.15;3.42;;;;;;;25.95;47.99;99233.91;4500053;31;33426;-68
2023/06/10 03:02:01;;;;;;;8.75;3.72;;;;;;;25.95;47.98;99239.37;4500072;31;34771;-66
2023/06/10 03:04:29;;;;;;;6.97;3.40;;;;;;;25.96;47.96;99237.47;4499993;31;33917;-65
2023/06/10 03:06:57;;;;;;;6.25;3.45;;;;;;;25.95;47.98;99238.56;4500091;31;33922;-68
2023/06/10 03:09:26;;;;;;;5.87;3.78;;;;;;;25.95;47.96;99233.09;4500130;31;33827;-68
2023/06/10 03:11:53;;;;;;;7.53;3.80;;;;;;;25.94;47.96;99229.53;4500112;31;33734;-67
2023/06/10 03:14:21;;;;;;;6.72;3.85;;;;;;;25.93;47.95;99233.34;4499714;31;34678;-67
2023/06/10 03:16:49;;;;;;;4.05;2.65;;;;;;;25.93;47.97;99224.34;4499794;31;34383;-66
2023/06/10 03:19:17;;;;;;;4.10;2.50;;;;;;;25.94;48.16;99228.69;4500078;31;33322;-68
2023/06/10 03:21:50;;;;;;;5.93;3.42;;;;;;;25.94;48.26;99236.91;4499580;31;34655;-62
2023/06/10 03:24:18;;;;;;;4.45;3.35;;;;;;;25.94;48.28;99236.91;4485914;31;34031;-67
2023/06/10 03:26:46;;;;;;;5.78;2.90;;;;;;;25.94;48.27;99231.44;4499901;31;34355;-68
2023/06/10 03:29:14;;;;;;;5.70;3.58;;;;;;;25.94;48.40;99234.16;4499743;31;34079;-69
2023/06/10 03:31:42;;;;;;;7.53;3.00;;;;;;;25.94;48.42;99234.16;4499749;31;34003;-68
2023/06/10 03:34:10;;;;;;;5.70;3.22;;;;;;;25.93;48.51;99241.56;4499775;31;34563;-68
2023/06/10 03:36:42;;;;;;;5.65;3.00;;;;;;;25.94;48.45;99245.94;4499615;31;34226;-67
2023/06/10 03:39:10;;;;;;;5.40;3.00;;;;;;;25.93;48.47;99238.00;4499529;31;33952;-68
2023/06/10 03:41:38;;;;;;;4.55;2.60;;;;;;;25.94;48.41;99247.84;4499732;31;33936;-68
2023/06/10 03:44:05;;;;;;;5.30;3.10;;;;;;;25.94;48.42;99242.38;4499423;31;34515;-69
2023/06/10 03:46:33;;;;;;;5.65;2.65;;;;;;;25.94;48.39;99242.38;4499382;31;34750;-68
2023/06/10 03:49:01;;;;;;;5.78;3.20;;;;;;;25.93;48.38;99249.75;4499726;31;33249;-66
2023/06/10 03:51:29;;;;;;;5.35;2.95;;;;;;;25.94;48.49;99253.31;4499608;31;34023;-68
2023/06/10 03:53:57;;;;;;;6.35;2.97;;;;;;;25.94;48.60;99247.84;4499268;31;34979;-68
2023/06/10 03:56:25;;;;;;;6.20;3.05;;;;;;;25.93;48.46;99251.66;4499436;31;34721;-64
2023/06/10 03:58:53;;;;;;;5.60;3.20;;;;;;;25.92;48.37;99248.06;4499356;31;34018;-68
2023/06/10 04:01:21;;;;;;;4.82;3.00;;;;;;;25.92;48.33;99247.25;4499127;31;33814;-66
2023/06/10 04:03:50;;;;;;;6.62;3.55;;;;;;;25.93;48.24;99243.47;4499059;31;33901;-68
2023/06/10 04:06:18;;;;;;;4.47;3.13;;;;;;;25.92;48.17;99245.34;4499156;31;34111;-64
2023/06/10 04:09:05;;;;;;;5.05;3.12;;;;;;;25.93;48.12;99238.00;4499141;31;34170;-67
2023/06/10 04:11:33;;;;;;;5.55;3.40;;;;;;;25.92;48.03;99239.06;4498962;31;33505;-67
2023/06/10 04:14:01;;;;;;;4.95;3.25;;;;;;;25.91;48.02;99235.50;4498697;31;34102;-64
2023/06/10 04:16:29;;;;;;;5.75;3.47;;;;;;;25.90;48.04;99230.28;4499325;31;34213;-66
2023/06/10 04:18:56;;;;;;;4.87;3.00;;;;;;;25.90;48.01;99228.38;4471569;31;32549;-67
2023/06/10 04:21:24;;;;;;;4.80;2.92;;;;;;;25.91;48.08;99229.22;4499245;31;34856;-67
2023/06/10 04:23:52;;;;;;;7.07;3.05;;;;;;;25.90;48.30;99225.66;4499104;31;34756;-68
2023/06/10 04:26:19;;;;;;;5.18;2.83;;;;;;;25.92;48.37;99237.16;4498712;31;34774;-68
2023/06/10 04:28:47;;;;;;;6.55;3.25;;;;;;;25.90;48.46;99231.13;4499690;31;34441;-68
2023/06/10 04:31:15;;;;;;;4.68;3.12;;;;;;;25.91;48.48;99238.22;4500758;31;33867;-68
2023/06/10 04:33:43;;;;;;;4.65;3.20;;;;;;;25.92;48.46;99236.31;4501316;31;33874;-65
2023/06/10 04:36:12;;;;;;;5.03;2.85;;;;;;;25.90;48.45;99231.13;4501213;31;33692;-69
2023/06/10 04:38:41;;;;;;;4.85;3.10;;;;;;;25.91;48.62;99232.75;4500774;31;33415;-68
2023/06/10 04:41:08;;;;;;;5.22;2.97;;;;;;;25.93;48.84;99232.53;4501216;31;34662;-69
2023/06/10 04:43:36;;;;;;;5.40;3.60;;;;;;;25.93;49.00;99232.53;4500998;31;33896;-67
2023/06/10 04:46:04;;;;;;;7.87;3.47;;;;;;;25.93;48.61;99232.53;4501091;31;34165;-67
2023/06/10 04:48:35;;;;;;;6.43;3.05;;;;;;;25.94;48.40;99234.16;4501075;31;33351;-67
2023/06/10 04:51:05;;;;;;;7.00;3.50;;;;;;;25.93;48.58;99227.06;4500881;31;33598;-61
2023/06/10 04:53:33;;;;;;;5.70;2.92;;;;;;;25.92;48.71;99225.38;4500683;31;34851;-67
2023/06/10 04:56:00;;;;;;;5.05;3.22;;;;;;;25.95;48.77;99233.09;4500925;31;33847;-65
2023/06/10 04:58:28;;;;;;;5.90;3.00;;;;;;;25.94;48.83;99231.44;4500891;31;34267;-62
2023/06/10 05:00:56;;;;;;;4.47;2.83;;;;;;;25.95;48.84;99231.16;4500953;31;34859;-67
2023/06/10 05:03:23;;;;;;;4.28;2.83;;;;;;;25.95;48.83;99233.09;4500869;31;33731;-68
2023/06/10 05:05:51;;;;;;;5.70;2.87;;;;;;;25.94;48.84;99229.53;4500923;31;33743;-67
2023/06/10 05:08:19;;;;;;;5.90;2.97;;;;;;;25.95;48.81;99238.56;4500654;31;33086;-67
2023/06/10 05:10:46;;;;;;;7.53;3.62;;;;;;;25.95;48.80;99233.09;4500183;31;33399;-68
2023/06/10 05:13:14;;;;;;;5.80;3.20;;;;;;;25.96;48.82;99240.19;4500875;31;35200;-66
2023/06/10 05:15:44;;;;;;;4.70;2.90;;;;;;;25.95;48.90;99238.56;4500217;31;34406;-67
2023/06/10 05:18:12;;;;;;;6.68;2.95;;;;;;;25.97;48.88;99243.75;4484657;32;34459;-65
2023/06/10 05:20:40;;;;;;;5.85;3.03;;;;;;;25.96;48.92;99248.41;4484214;32;34809;-66
2023/06/10 05:23:07;;;;;;;6.60;3.15;;;;;;;25.97;48.91;99241.84;4484484;32;34061;-69
2023/06/10 05:25:35;;;;;;;4.30;2.78;;;;;;;25.96;48.91;99242.94;4484158;32;33396;-67
2023/06/10 05:28:03;;;;;;;4.18;2.60;;;;;;;25.96;48.93;99248.41;4486170;31;34191;-66
2023/06/10 05:30:31;;;;;;;7.70;2.67;;;;;;;25.97;48.92;99252.78;4515610;31;33735;-68
2023/06/10 05:32:58;;;;;;;6.40;3.12;;;;;;;25.97;48.93;99255.50;4516214;31;34141;-69
2023/06/10 05:35:26;;;;;;;8.23;3.20;;;;;;;25.97;48.96;99252.78;4516085;31;33781;-68
2023/06/10 05:37:54;;;;;;;5.55;3.17;;;;;;;25.98;48.97;99248.97;4515947;31;33213;-66
2023/06/10 05:40:21;;;;;;;4.43;2.80;;;;;;;25.98;48.96;99246.25;4516307;31;34082;-66
2023/06/10 05:42:49;;;;;;;4.62;2.42;;;;;;;25.98;48.97;99250.91;4516456;31;33567;-68
2023/06/10 05:45:17;;;;;;;5.18;2.65;;;;;;;25.98;48.97;99245.44;4516088;31;33840;-68
2023/06/10 05:47:44;;;;;;;4.43;2.80;;;;;;;25.97;48.99;99241.84;4516016;31;33747;-67
2023/06/10 05:50:12;;;;;;;6.25;2.70;;;;;;;25.99;48.99;99247.91;4516128;31;33877;-68
2023/06/10 05:52:40;;;;;;;5.78;2.80;;;;;;;25.98;48.99;99246.25;4516077;31;33647;-68
2023/06/10 05:55:08;;;;;;;8.07;2.92;;;;;;;25.98;49.01;99248.97;4515877;31;34869;-65
2023/06/10 05:57:36;;;;;;;6.10;2.60;;;;;;;25.99;49.00;99255.28;4515804;31;34054;-66
2023/06/10 06:00:05;;;;;;;4.40;2.83;;;;;;;26.00;48.99;99252.28;4515931;31;33900;-67
2023/06/10 06:02:38;;;;;;;3.83;2.55;;;;;;;25.99;49.01;99253.37;4515804;31;34108;-66
2023/06/10 06:05:06;;;;;;;4.15;2.60;;;;;;;26.00;49.01;99248.72;4511201;31;34016;-64
2023/06/10 06:07:35;;;;;;;4.40;2.33;;;;;;;26.00;49.05;99255.00;4500106;31;33550;-68
2023/06/10 06:10:03;;;;;;;5.37;2.65;;;;;;;25.99;49.02;99247.91;4499915;31;34701;-66
2023/06/10 06:12:31;;;;;;;4.57;2.75;;;;;;;25.99;49.03;99258.81;4499860;31;34813;-67
2023/06/10 06:14:58;;;;;;;5.40;2.70;;;;;;;26.00;49.04;99249.53;4499783;31;34464;-54
2023/06/10 06:17:25;;;;;;;4.05;2.75;;;;;;;26.00;49.01;99246.81;4500078;31;33222;-63
2023/06/10 06:19:54;;;;;;;3.72;2.42;;;;;;;26.00;49.02;99249.53;4499460;31;33994;-58
2023/06/10 06:22:22;;;;;;;4.68;2.62;;;;;;;26.01;49.02;99244.88;4500258;31;33813;-67
2023/06/10 06:24:49;;;;;;;3.67;2.58;;;;;;;26.01;49.04;99255.81;4499824;31;33662;-67
2023/06/10 06:27:17;;;;;;;3.83;2.75;;;;;;;26.00;49.01;99257.75;4499580;31;33315;-63
2023/06/10 06:29:45;;;;;;;3.80;2.65;;;;;;;26.01;49.03;99259.38;4493573;31;187734;-69
2023/06/10 06:32:13;;;;;;;4.65;2.85;;;;;;;26.01;49.01;99256.66;4499749;31;34115;-65
2023/06/10 06:34:40;;;;;;;3.65;2.62;;;;;;;26.02;48.99;99263.78;4499651;31;33913;-63
2023/06/10 06:37:08;;;;;;;4.47;2.62;;;;;;;26.02;49.00;99258.31;4499964;31;33558;-57
2023/06/10 06:39:36;;;;;;;4.22;2.80;;;;;;;26.03;48.99;99262.69;4499701;31;33835;-61
2023/06/10 06:42:05;;;;;;;3.87;2.47;;;;;;;26.02;48.99;99269.25;4499503;31;34753;-65
2023/06/10 06:44:35;;;;;;;4.60;2.60;;;;;;;26.03;48.99;99264.63;4499849;31;34477;-65
2023/06/10 06:47:03;;;;;;;4.30;2.78;;;;;;;26.03;48.99;99264.63;4499726;31;33604;-69
2023/06/10 06:49:31;;;;;;;4.47;2.90;;;;;;;26.02;48.98;99266.53;4499920;31;34859;-72
2023/06/10 06:51:58;;;;;;;5.10;2.80;;;;;;;26.02;48.77;99262.94;4498719;31;34691;-64
2023/06/10 06:54:26;;;;;;;3.47;2.53;;;;;;;26.02;48.65;99263.78;4499349;31;34031;-73
2023/06/10 06:56:53;;;;;;;5.12;2.92;;;;;;;26.03;48.65;99270.09;4499665;31;33642;-71
2023/06/10 06:59:21;;;;;;;4.45;2.83;;;;;;;26.01;48.51;99258.56;4499713;31;34771;-66
2023/06/10 07:01:49;;;;;;;3.65;2.53;;;;;;;26.01;48.45;99269.50;4499573;31;34849;-72
2023/06/10 07:04:19;;;;;;;4.82;2.92;;;;;;;26.02;48.50;99262.94;4499724;31;33607;-66
2023/06/10 07:06:47;;;;;;;5.03;2.80;;;;;;;26.01;48.68;99267.59;4484292;31;33296;-64
2023/06/10 07:09:15;;;;;;;4.57;3.20;;;;;;;26.02;48.63;99268.41;4483384;32;33716;-68
2023/06/10 07:11:44;;;;;;;5.70;2.90;;;;;;;26.02;48.79;99263.78;4496943;31;34755;-71
2023/06/10 07:14:11;;;;;;;4.55;3.00;;;;;;;26.03;48.89;99270.09;4508519;31;33702;-72
2023/06/10 07:16:39;;;;;;;5.87;3.30;;;;;;;26.03;48.98;99268.16;4499180;31;33352;-74
2023/06/10 07:19:07;;;;;;;4.53;2.80;;;;;;;26.02;49.05;99263.78;4499606;31;33619;-74
2023/06/10 07:21:36;;;;;;;5.70;3.33;;;;;;;26.01;49.06;99274.97;4492209;31;33624;-74
2023/06/10 07:24:04;;;;;;;6.18;3.50;;;;;;;26.03;49.10;99268.16;4493515;31;34557;-66
2023/06/10 07:26:31;;;;;;;5.87;2.70;;;;;;;26.04;49.06;99278.03;4484640;31;33547;-67
2023/06/10 07:28:59;;;;;;;8.88;2.92;;;;;;;26.03;49.07;99276.37;4514983;31;34076;-68
2023/06/10 07:31:27;;;;;;;9.30;3.22;;;;;;;26.03;49.10;99265.44;4505482;31;33842;-61
2023/06/10 07:33:54;;;;;;;4.82;3.47;;;;;;;26.04;49.15;99272.56;4483780;32;35037;-67
2023/06/10 07:36:22;;;;;;;8.05;3.65;;;;;;;26.05;49.15;99276.09;4483789;32;33931;-62
2023/06/10 07:38:50;;;;;;;5.53;3.20;;;;;;;26.04;49.12;99282.66;4485276;31;33990;-69
2023/06/10 07:41:17;;;;;;;6.15;3.12;;;;;;;26.04;48.98;99283.47;4515377;31;34638;-76
2023/06/10 07:43:45;;;;;;;5.75;3.40;;;;;;;26.03;48.82;99281.03;4515202;31;34662;-71
2023/06/10 07:46:13;;;;;;;6.50;3.60;;;;;;;26.02;48.81;99280.19;4513302;31;33442;-72
2023/06/10 07:48:40;;;;;;;5.53;3.75;;;;;;;26.02;48.84;99274.72;4499302;31;34604;-67
2023/06/10 07:51:08;;;;;;;8.18;4.20;;;;;;;26.02;48.81;99276.59;4499532;31;34035;-63
2023/06/10 07:53:36;;;;;;;5.62;3.90;;;;;;;26.02;48.84;99279.34;4485024;31;34193;-67
2023/06/10 07:56:04;;;;;;;6.65;4.00;;;;;;;26.02;48.84;99280.19;4497672;31;33487;-64
2023/06/10 07:58:31;;;;;;;6.60;3.62;;;;;;;26.01;48.87;99281.25;4484408;31;34243;-60
2023/06/10 08:00:59;;;;;;;6.97;3.95;;;;;;;26.01;49.01;99278.53;4498953;31;33934;-61
2023/06/10 08:03:27;;;;;;;6.90;4.30;;;;;;;26.03;49.03;99287.31;4499230;31;33958;-73
2023/06/10 08:05:54;;;;;;;5.93;3.65;;;;;;;26.03;49.07;99289.22;4500296;31;34344;-67
2023/06/10 08:08:22;;;;;;;5.75;3.85;;;;;;;26.02;49.06;99274.72;4500940;31;33808;-73
2023/06/10 08:10:50;;;;;;;6.20;4.20;;;;;;;26.01;49.10;99278.53;4501182;31;35090;-68
2023/06/10 08:13:18;;;;;;;6.50;4.20;;;;;;;26.03;49.08;99281.03;4501339;31;33775;-70
2023/06/10 08:15:47;;;;;;;11.07;4.43;;;;;;;26.04;49.08;99277.19;4500963;31;33255;-61
2023/06/10 08:18:16;;;;;;;5.90;4.35;;;;;;;26.04;49.16;99280.75;4484992;31;33413;-73
2023/06/10 08:20:44;;;;;;;5.82;4.07;;;;;;;26.06;49.07;99283.22;4485471;32;34092;-69
2023/06/10 08:23:15;;;;;;;6.50;4.47;;;;;;;26.04;49.06;99274.47;4493961;31;33786;-66
2023/06/10 08:25:43;;;;;;;5.80;4.18;;;;;;;26.04;49.07;99275.28;4473850;31;33572;-73
2023/06/10 08:28:10;;;;;;;6.25;4.20;;;;;;;26.04;49.16;99272.56;4500759;31;33558;-61
2023/06/10 08:30:38;;;;;;;5.78;4.40;;;;;;;26.06;49.15;99275.84;4499783;31;33616;-74
2023/06/10 08:33:05;;;;;;;5.85;4.10;;;;;;;26.06;49.09;99273.09;4500989;31;34153;-73
2023/06/10 08:35:33;;;;;;;6.68;4.82;;;;;;;26.08;48.98;99276.44;4500901;31;34613;-65
2023/06/10 08:38:00;;;;;;;7.20;4.80;;;;;;;26.08;48.81;99270.13;4486862;31;33880;-73
2023/06/10 08:40:28;;;;;;;5.78;4.12;;;;;;;26.08;48.74;99268.22;4500945;31;33966;-70
2023/06/10 08:43:15;;;;;;;6.47;4.55;;;;;;;26.07;48.71;99269.31;4486519;31;33898;-71
2023/06/10 08:45:43;;;;;;;5.60;4.70;;;;;;;26.07;48.79;99268.50;4486811;31;34076;-73
2023/06/10 08:48:10;;;;;;;6.03;4.47;;;;;;;26.09;48.83;99269.03;4473659;31;32925;-71
2023/06/10 08:50:38;;;;;;;6.45;4.37;;;;;;;26.09;48.83;99263.56;4474124;31;34673;-74
2023/06/10 08:53:07;;;;;;;6.72;4.53;;;;;;;26.09;48.83;99261.66;4486663;31;34582;-74
2023/06/10 08:55:41;;;;;;;6.62;4.43;;;;;;;26.10;48.86;99254.28;4501037;31;33333;-68
2023/06/10 08:58:10;;;;;;;6.72;4.78;;;;;;;26.09;48.80;99263.56;4501107;31;34675;-72
2023/06/10 09:00:37;;;;;;;6.87;4.80;;;;;;;26.10;48.71;99259.75;4484219;31;34414;-68
2023/06/10 09:03:05;;;;;;;5.95;4.87;;;;;;;26.10;48.67;99255.09;4486526;31;33864;-74
2023/06/10 09:05:33;;;;;;;6.47;4.60;;;;;;;26.10;48.76;99255.09;4489874;31;33446;-69
2023/06/10 09:08:00;;;;;;;5.62;4.22;;;;;;;26.11;48.67;99251.31;4516551;31;33814;-72
2023/06/10 09:10:28;;;;;;;6.03;4.75;;;;;;;26.13;48.07;99242.84;4501845;31;33568;-69
2023/06/10 09:12:56;;;;;;;6.07;4.57;;;;;;;26.13;48.21;99245.59;4489079;31;34657;-67
2023/06/10 09:15:24;;;;;;;6.95;4.93;;;;;;;26.15;48.16;99246.13;4500380;31;33211;-74
2023/06/10 09:17:51;;;;;;;6.43;4.30;;;;;;;26.15;48.18;99246.97;4504831;31;33447;-74
2023/06/10 09:20:19;;;;;;;7.47;4.80;;;;;;;26.16;48.14;99232.22;4516353;31;33807;-68
2023/06/10 09:22:47;;;;;;;7.22;4.90;;;;;;;26.18;48.08;99243.72;4515996;31;34775;-73
2023/06/10 09:25:15;;;;;;;6.05;4.55;;;;;;;26.20;47.94;99238.81;4515861;31;33318;-74
2023/06/10 09:27:56;;;;;;;7.57;5.18;;;;;;;26.21;48.07;99234.19;4512964;31;33407;-74
2023/06/10 09:30:24;;;;;;;7.10;4.57;;;;;;;26.24;48.02;99221.88;4499537;31;34008;-73
2023/06/10 09:32:58;;;;;;;7.62;4.72;;;;;;;26.21;48.08;99228.72;4497473;31;33985;-73
2023/06/10 09:35:27;;;;;;;10.00;4.28;;;;;;;26.23;48.06;99226.53;4497190;31;34287;-75
2023/06/10 09:37:58;;;;;;;7.60;4.90;;;;;;;26.23;48.04;99220.25;4498048;31;34799;-74
2023/06/10 09:40:27;;;;;;;6.15;4.72;;;;;;;26.24;48.00;99221.88;4498513;31;33695;-74
2023/06/10 09:42:57;;;;;;;6.17;4.93;;;;;;;26.25;47.93;99224.34;4497383;31;34479;-60
2023/06/10 09:45:29;;;;;;;8.00;5.07;;;;;;;26.26;47.90;99228.75;4484638;31;33171;-70
2023/06/10 09:47:57;;;;;;;5.95;4.68;;;;;;;26.29;47.68;99228.22;4470717;31;33801;-71
2023/06/10 09:50:25;;;;;;;6.00;4.57;;;;;;;26.27;47.56;99227.66;4498668;31;34652;-69
2023/06/10 09:52:53;;;;;;;7.97;4.90;;;;;;;26.27;47.51;99227.66;4498765;31;34086;-69
2023/06/10 09:55:21;;;;;;;5.97;4.72;;;;;;;26.28;47.42;99215.63;4500729;31;34182;-71
2023/06/10 09:57:53;;;;;;;7.53;5.03;;;;;;;26.27;47.38;99218.66;4499418;31;33263;-74
2023/06/10 10:00:23;;;;;;;5.70;4.70;;;;;;;26.28;47.52;99225.75;4491943;31;34467;-72
2023/06/10 10:02:52;;;;;;;6.80;4.18;;;;;;;26.31;47.21;99219.78;4498729;31;33697;-71
2023/06/10 10:05:21;;;;;;;6.18;4.20;;;;;;;26.29;47.18;99219.19;4499556;31;33531;-73
2023/06/10 10:07:49;;;;;;;9.25;3.85;;;;;;;26.30;47.08;99218.97;4499991;31;33816;-67
2023/06/10 10:10:19;;;;;;;6.30;4.30;;;;;;;26.34;47.04;99216.50;4485440;31;33712;-74
2023/06/10 10:12:47;;;;;;;8.32;3.95;;;;;;;26.34;47.01;99222.78;4499699;31;33948;-68
2023/06/10 10:15:16;;;;;;;6.95;4.00;;;;;;;26.36;47.11;99214.34;4499795;31;34011;-69
2023/06/10 10:17:58;;;;;;;7.35;4.25;;;;;;;26.36;47.01;99223.37;4504909;31;34358;-74
2023/06/10 10:20:27;;;;;;;7.65;4.40;;;;;;;26.39;47.22;99222.00;4486938;31;34878;-69
2023/06/10 10:22:58;;;;;;;7.10;3.78;;;;;;;26.36;47.44;99220.66;4472658;31;34780;-67
2023/06/10 10:25:34;;;;;;;5.82;4.03;;;;;;;26.39;47.44;99222.87;4472922;31;33323;-73
2023/06/10 10:28:11;;;;;;;10.10;4.00;;;;;;;26.39;47.50;99222.00;4472876;31;34673;-68
2023/06/10 10:30:46;;;;;;;11.50;4.12;;;;;;;26.39;47.54;99225.59;4486224;31;33984;-69
2023/06/10 10:33:23;;;;;;;8.00;4.30;;;;;;;26.40;47.65;99220.97;4485785;31;33834;-70
2023/06/10 10:35:50;;;;;;;7.05;3.75;;;;;;;26.38;47.67;99217.63;4485526;31;33330;-66
2023/06/10 10:38:18;;;;;;;8.85;4.35;;;;;;;26.38;47.76;99214.91;4485411;31;33755;-66
2023/06/10 10:40:46;;;;;;;6.50;3.92;;;;;;;26.35;47.74;99212.72;4487066;31;34003;-65
2023/06/10 10:43:13;;;;;;;9.02;3.87;;;;;;;26.35;47.64;99218.19;4499385;31;34128;-65
2023/06/10 10:45:41;;;;;;;8.63;3.90;;;;;;;26.34;47.50;99211.84;4485105;31;33366;-66
2023/06/10 10:48:11;;;;;;;6.50;3.83;;;;;;;26.35;47.50;99215.44;4499181;31;33929;-65
2023/06/10 10:50:40;;;;;;;12.25;6.25;;;;;;;26.35;47.52;99215.44;4483634;32;34771;-64
2023/06/10 10:53:08;;;;;;;11.25;6.43;;;;;;;26.35;47.51;99213.53;4483751;32;33760;-66
2023/06/10 10:55:35;;;;;;;11.15;6.72;;;;;;;26.36;47.51;99200.69;4509445;31;33499;-66
2023/06/10 10:58:04;;;;;;;9.57;7.05;;;;;;;26.35;47.61;99209.97;4499876;31;33983;-60
2023/06/10 11:00:37;;;;;;;12.75;7.22;;;;;;;26.34;47.67;99208.28;4499806;31;33549;-64
2023/06/10 11:03:07;;;;;;;14.32;8.15;;;;;;;26.33;47.73;99209.37;4499594;31;33943;-60
2023/06/10 11:05:47;;;;;;;11.30;8.65;;;;;;;26.31;47.71;99204.19;4499824;31;34630;-61
2023/06/10 11:08:35;;;;;;;11.23;8.20;;;;;;;26.32;47.71;99200.37;4499596;31;34794;-61
2023/06/10 11:11:25;;;;;;;9.95;8.95;;;;;;;26.30;47.75;99199.81;4485720;31;34825;-60
2023/06/10 11:14:02;;;;;;;10.57;8.55;;;;;;;26.33;47.74;99195.72;4499682;31;33832;-60
2023/06/10 11:16:30;;;;;;;11.40;9.85;;;;;;;26.31;47.79;99186.97;4507960;31;33674;-61
2023/06/10 11:18:57;;;;;;;13.82;8.88;;;;;;;26.29;47.86;99194.59;4515577;31;34231;-60
2023/06/10 11:21:25;;;;;;;15.48;8.52;;;;;;;26.29;47.92;99186.37;4514957;31;34221;-61
2023/06/10 11:23:57;;;;;;;12.45;8.75;;;;;;;26.29;47.97;99186.37;4515507;31;34885;-61
2023/06/10 11:26:31;;;;;;;12.18;8.18;;;;;;;26.28;48.07;99188.28;4515495;31;34159;-61
2023/06/10 11:28:59;;;;;;;11.25;9.10;;;;;;;26.28;48.09;99193.75;4515517;31;33997;-61
2023/06/10 11:31:31;;;;;;;10.60;8.98;;;;;;;26.28;48.15;99185.56;4515111;31;34053;-60
2023/06/10 11:34:04;;;;;;;11.82;9.52;;;;;;;26.28;48.24;99190.19;4515552;31;34092;-63
2023/06/10 11:36:51;;;;;;;10.30;9.00;;;;;;;26.28;48.29;99184.72;4501263;31;33924;-61
2023/06/10 11:39:19;;;;;;;10.10;8.70;;;;;;;26.29;48.26;99189.09;4520350;31;33718;-60
2023/06/10 11:41:47;;;;;;;10.97;9.80;;;;;;;26.28;48.24;99180.09;4520668;31;33935;-61